createdAt,value
2022-12-28T00:01:23.304Z,80.58
2022-12-28T00:03:51.781Z,78.65
2022-12-28T00:06:20.514Z,78.74
2022-12-28T00:08:47.889Z,79.23
2022-12-28T00:11:30.234Z,80.69
2022-12-28T00:14:00.470Z,78.08
2022-12-28T00:16:39.834Z,77.34
2022-12-28T00:19:11.232Z,78.98
2022-12-28T00:21:38.824Z,77.84
2022-12-28T00:24:06.343Z,77.68
2022-12-28T00:26:34.996Z,78.43
2022-12-28T00:29:05.242Z,76.59
2022-12-28T00:31:34.312Z,77.04
2022-12-28T00:34:02.679Z,75.92
2022-12-28T00:37:08.349Z,76.73
2022-12-28T00:39:19.576Z,77.84
2022-12-28T00:41:47.244Z,76.81
2022-12-28T00:44:14.506Z,78.31
2022-12-28T00:46:41.731Z,77.42
2022-12-28T00:49:09.156Z,76.97
2022-12-28T00:51:36.527Z,77.07
2022-12-28T00:54:04.251Z,78.00
2022-12-28T00:56:31.566Z,76.77
2022-12-28T00:58:59.722Z,76.23
2022-12-28T01:01:28.473Z,78.24
2022-12-28T01:03:59.011Z,75.75
2022-12-28T01:06:27.464Z,77.75
2022-12-28T01:08:55.323Z,77.15
2022-12-28T01:11:25.398Z,77.76
2022-12-28T01:13:55.420Z,75.61
2022-12-28T01:16:32.824Z,76.33
2022-12-28T01:19:02.023Z,76.74
2022-12-28T01:21:32.385Z,76.53
2022-12-28T01:24:01.932Z,76.79
2022-12-28T01:26:29.779Z,76.02
2022-12-28T01:28:58.614Z,77.07
2022-12-28T01:31:26.557Z,77.05
2022-12-28T01:33:54.417Z,77.75
2022-12-28T01:36:23.848Z,76.57
2022-12-28T01:38:56.626Z,76.33
2022-12-28T01:41:26.644Z,75.41
2022-12-28T01:43:53.953Z,75.63
2022-12-28T01:46:59.163Z,75.40
2022-12-28T01:49:37.353Z,76.83
2022-12-28T01:52:24.841Z,76.89
2022-12-28T01:54:59.918Z,76.75
2022-12-28T01:57:30.318Z,76.35
2022-12-28T02:00:02.109Z,76.92
2022-12-28T02:02:42.408Z,75.70
2022-12-28T02:05:10.129Z,77.01
2022-12-28T02:07:51.352Z,76.94
2022-12-28T02:10:43.852Z,75.45
2022-12-28T02:13:07.250Z,77.12
2022-12-28T02:15:34.639Z,77.18
2022-12-28T02:18:02.476Z,76.87
2022-12-28T02:20:37.252Z,76.37
2022-12-28T02:23:12.964Z,77.73
2022-12-28T02:25:58.686Z,77.82
2022-12-28T02:28:58.707Z,76.29
2022-12-28T02:32:11.402Z,77.43
2022-12-28T02:34:53.616Z,76.59
2022-12-28T02:37:27.519Z,77.04
2022-12-28T02:40:21.725Z,75.33
2022-12-28T02:42:50.277Z,78.16
2022-12-28T02:46:06.150Z,78.74
2022-12-28T02:49:01.703Z,77.84
2022-12-28T02:51:59.215Z,77.90
2022-12-28T02:55:09.951Z,77.67
2022-12-28T02:58:20.452Z,78.87
2022-12-28T03:01:06.222Z,78.02
2022-12-28T03:03:33.463Z,78.44
2022-12-28T03:06:40.793Z,78.01
2022-12-28T03:09:33.238Z,77.09
2022-12-28T03:12:08.837Z,77.03
2022-12-28T03:14:43.933Z,78.22
2022-12-28T03:17:30.424Z,76.75
2022-12-28T03:20:19.350Z,76.08
2022-12-28T03:23:06.442Z,78.33
2022-12-28T03:25:57.060Z,78.60
2022-12-28T03:28:49.565Z,77.72
2022-12-28T03:31:23.260Z,76.98
2022-12-28T03:34:06.880Z,78.88
2022-12-28T03:36:53.758Z,80.16
2022-12-28T03:39:54.176Z,79.05
2022-12-28T03:42:45.578Z,77.36
2022-12-28T03:45:44.261Z,78.81
2022-12-28T03:48:07.091Z,78.79
2022-12-28T03:50:40.196Z,78.87
2022-12-28T03:53:08.959Z,79.10
2022-12-28T03:55:38.153Z,78.49
2022-12-28T03:58:05.964Z,79.12
2022-12-28T04:00:33.444Z,78.86
2022-12-28T04:03:01.347Z,78.97
2022-12-28T04:05:29.261Z,79.48
2022-12-28T04:07:56.674Z,79.50
2022-12-28T04:10:23.934Z,79.57
2022-12-28T04:12:55.576Z,80.72
2022-12-28T04:15:28.214Z,80.12
2022-12-28T04:17:55.562Z,80.17
2022-12-28T04:20:23.784Z,79.22
2022-12-28T04:22:51.646Z,79.06
2022-12-28T04:25:19.256Z,78.79
2022-12-28T04:27:46.780Z,79.49
2022-12-28T04:30:34.023Z,79.80
2022-12-28T04:33:01.509Z,80.07
2022-12-28T04:35:29.372Z,79.08
2022-12-28T04:37:56.966Z,77.62
2022-12-28T04:40:24.316Z,81.48
2022-12-28T04:42:51.534Z,79.16
2022-12-28T04:45:22.136Z,79.23
2022-12-28T04:47:49.576Z,79.37
2022-12-28T04:50:17.122Z,77.07
2022-12-28T04:52:44.401Z,79.34
2022-12-28T04:55:32.832Z,79.22
2022-12-28T04:58:00.986Z,80.26
2022-12-28T05:00:28.420Z,79.52
2022-12-28T05:02:59.332Z,80.27
2022-12-28T05:05:28.153Z,81.37
2022-12-28T05:07:56.006Z,79.76
2022-12-28T05:10:23.348Z,80.08
2022-12-28T05:12:50.766Z,81.93
2022-12-28T05:15:18.017Z,80.83
2022-12-28T05:17:45.299Z,81.62
2022-12-28T05:20:12.738Z,81.60
2022-12-28T05:22:41.186Z,81.04
2022-12-28T05:25:08.811Z,82.78
2022-12-28T05:27:35.995Z,81.92
2022-12-28T05:30:03.604Z,84.02
2022-12-28T05:32:30.864Z,83.57
2022-12-28T05:34:58.289Z,81.84
2022-12-28T05:37:25.531Z,83.16
2022-12-28T05:39:52.945Z,81.41
2022-12-28T05:42:20.192Z,81.73
2022-12-28T05:44:47.460Z,81.40
2022-12-28T05:47:14.710Z,82.90
2022-12-28T05:49:42.110Z,81.86
2022-12-28T05:52:09.329Z,81.62
2022-12-28T05:54:36.569Z,81.88
2022-12-28T05:57:03.858Z,81.92
2022-12-28T05:59:31.440Z,80.52
2022-12-28T06:01:59.231Z,80.70
2022-12-28T06:04:26.697Z,79.45
2022-12-28T06:06:56.732Z,81.30
2022-12-28T06:09:24.119Z,81.33
2022-12-28T06:11:51.273Z,82.04
2022-12-28T06:14:18.506Z,80.52
2022-12-28T06:16:46.129Z,80.77
2022-12-28T06:19:16.348Z,80.72
2022-12-28T06:21:43.976Z,80.58
2022-12-28T06:24:11.996Z,80.22
2022-12-28T06:26:41.049Z,80.52
2022-12-28T06:29:09.355Z,80.17
2022-12-28T06:31:38.950Z,81.29
2022-12-28T06:34:07.965Z,80.69
2022-12-28T06:36:40.546Z,82.86
2022-12-28T06:39:09.997Z,81.99
2022-12-28T06:41:37.893Z,81.19
2022-12-28T06:44:10.317Z,82.10
2022-12-28T06:46:37.959Z,81.03
2022-12-28T06:49:05.509Z,80.85
2022-12-28T06:51:36.406Z,80.51
2022-12-28T06:54:03.863Z,79.88
2022-12-28T06:56:36.015Z,81.36
2022-12-28T06:59:04.564Z,81.01
2022-12-28T07:01:37.846Z,80.43
2022-12-28T07:04:06.448Z,79.67
2022-12-28T07:06:40.017Z,81.77
2022-12-28T07:09:10.567Z,79.97
2022-12-28T07:11:38.246Z,80.64
2022-12-28T07:14:05.600Z,82.37
2022-12-28T07:18:59.821Z,82.75
2022-12-28T07:21:30.431Z,81.79
2022-12-28T07:23:58.289Z,83.54
2022-12-28T07:26:31.018Z,82.83
2022-12-28T07:29:00.147Z,79.05
2022-12-28T07:31:36.947Z,76.61
2022-12-28T07:34:07.398Z,76.96
2022-12-28T07:36:34.755Z,79.55
2022-12-28T07:39:02.564Z,78.55
2022-12-28T07:41:33.195Z,76.99
2022-12-28T07:44:01.050Z,78.02
2022-12-28T07:46:30.649Z,78.98
2022-12-28T07:48:58.337Z,77.29
2022-12-28T07:51:27.804Z,77.12
2022-12-28T07:53:56.283Z,76.85
2022-12-28T07:56:24.329Z,75.71
2022-12-28T07:58:53.421Z,76.17
2022-12-28T08:01:22.381Z,75.62
2022-12-28T08:03:53.583Z,75.58
2022-12-28T08:06:23.025Z,76.62
2022-12-28T08:08:55.427Z,77.30
2022-12-28T08:11:25.801Z,77.38
2022-12-28T08:13:54.886Z,76.20
2022-12-28T08:16:24.510Z,77.22
2022-12-28T08:18:51.927Z,76.12
2022-12-28T08:21:22.188Z,76.57
2022-12-28T08:23:50.682Z,78.44
2022-12-28T08:26:26.078Z,77.78
2022-12-28T08:28:55.981Z,76.98
2022-12-28T08:31:35.215Z,77.12
2022-12-28T08:34:03.712Z,76.63
2022-12-28T08:36:31.662Z,76.69
2022-12-28T08:39:00.506Z,75.47
2022-12-28T08:41:29.136Z,79.40
2022-12-28T08:43:57.378Z,78.98
2022-12-28T08:46:32.533Z,78.36
2022-12-28T08:49:00.930Z,78.31
2022-12-28T08:51:38.520Z,78.83
2022-12-28T08:54:06.394Z,77.17
2022-12-28T08:56:36.568Z,77.25
2022-12-28T08:59:04.958Z,76.76
2022-12-28T09:01:40.818Z,78.02
2022-12-28T09:04:30.208Z,78.39
2022-12-28T09:07:00.508Z,76.11
2022-12-28T09:09:27.996Z,78.52
2022-12-28T09:11:57.905Z,76.25
2022-12-28T09:14:25.197Z,78.31
2022-12-28T09:16:53.670Z,78.32
2022-12-28T09:19:21.486Z,78.17
2022-12-28T09:21:52.405Z,78.99
2022-12-28T09:24:19.903Z,77.26
2022-12-28T09:26:47.197Z,77.58
2022-12-28T09:29:15.019Z,76.90
2022-12-28T09:31:44.244Z,77.97
2022-12-28T09:37:00.880Z,77.18
2022-12-28T09:39:29.191Z,78.06
2022-12-28T09:42:04.020Z,77.61
2022-12-28T09:44:41.953Z,78.58
2022-12-28T09:47:17.229Z,78.17
2022-12-28T09:50:12.306Z,75.20
2022-12-28T09:52:57.349Z,76.43
2022-12-28T09:55:24.896Z,79.12
2022-12-28T09:57:55.661Z,77.29
2022-12-28T10:00:38.996Z,76.17
2022-12-28T10:03:14.578Z,76.52
2022-12-28T10:05:42.133Z,73.84
2022-12-28T10:08:12.321Z,74.95
2022-12-28T10:10:42.003Z,74.54
2022-12-28T10:13:45.523Z,74.33
2022-12-28T10:16:13.630Z,73.14
2022-12-28T10:18:40.891Z,72.47
2022-12-28T10:21:08.381Z,73.55
2022-12-28T10:23:50.214Z,73.68
2022-12-28T10:26:23.909Z,72.77
2022-12-28T10:28:52.120Z,70.36
2022-12-28T10:31:36.752Z,70.48
2022-12-28T10:34:21.172Z,69.76
2022-12-28T10:36:49.732Z,69.45
2022-12-28T10:39:28.327Z,70.43
2022-12-28T10:42:00.837Z,70.78
2022-12-28T10:44:39.783Z,70.03
2022-12-28T10:47:24.719Z,70.91
2022-12-28T10:53:09.177Z,68.83
2022-12-28T10:55:36.749Z,69.17
2022-12-28T10:58:30.362Z,69.16
2022-12-28T11:01:06.706Z,69.56
2022-12-28T11:03:39.120Z,69.34
2022-12-28T11:06:12.606Z,69.14
2022-12-28T11:08:41.095Z,69.65
2022-12-28T11:11:24.864Z,69.00
2022-12-28T11:13:57.233Z,68.87
2022-12-28T11:16:24.721Z,68.23
2022-12-28T11:18:52.487Z,68.10
2022-12-28T11:21:21.640Z,68.09
2022-12-28T11:23:50.955Z,68.36
2022-12-28T11:26:19.551Z,67.83
2022-12-28T11:28:50.339Z,68.21
2022-12-28T11:31:21.432Z,68.00
2022-12-28T11:33:51.619Z,67.17
2022-12-28T11:36:20.597Z,66.70
2022-12-28T11:38:49.643Z,66.79
2022-12-28T11:41:33.481Z,66.60
2022-12-28T11:44:04.635Z,66.55
2022-12-28T11:46:34.990Z,67.36
2022-12-28T11:49:04.028Z,67.81
2022-12-28T11:51:33.657Z,68.13
2022-12-28T11:54:06.136Z,67.94
2022-12-28T11:56:36.519Z,67.92
2022-12-28T11:59:13.383Z,67.78
2022-12-28T12:01:42.319Z,67.84
2022-12-28T12:04:28.776Z,67.33
2022-12-28T12:07:01.253Z,67.31
2022-12-28T12:09:43.638Z,66.95
2022-12-28T12:12:17.872Z,66.80
2022-12-28T12:15:02.976Z,66.92
2022-12-28T12:17:43.098Z,66.90
2022-12-28T12:20:34.409Z,66.78
2022-12-28T12:23:29.499Z,67.45
2022-12-28T12:25:59.623Z,67.29
2022-12-28T12:28:46.648Z,66.96
2022-12-28T12:31:19.277Z,66.96
2022-12-28T12:33:48.582Z,66.11
2022-12-28T12:36:28.909Z,67.20
2022-12-28T12:39:08.717Z,67.99
2022-12-28T12:41:49.270Z,67.55
2022-12-28T12:44:28.434Z,67.96
2022-12-28T12:47:11.277Z,67.65
2022-12-28T12:50:15.862Z,68.49
2022-12-28T12:52:53.968Z,67.49
2022-12-28T12:55:40.305Z,67.71
2022-12-28T12:58:22.614Z,67.29
2022-12-28T13:01:19.736Z,67.08
2022-12-28T13:03:49.772Z,67.19
2022-12-28T13:06:20.077Z,66.98
2022-12-28T13:08:51.525Z,67.18
2022-12-28T13:11:19.382Z,68.18
2022-12-28T13:13:49.193Z,67.72
2022-12-28T13:16:19.803Z,68.05
2022-12-28T13:18:58.353Z,67.23
2022-12-28T13:21:28.294Z,67.66
2022-12-28T13:23:55.607Z,67.64
2022-12-28T13:26:29.214Z,68.63
2022-12-28T13:29:08.082Z,68.34
2022-12-28T13:31:38.365Z,67.85
2022-12-28T13:34:26.005Z,68.13
2022-12-28T13:37:01.557Z,68.62
2022-12-28T13:39:34.108Z,68.22
2022-12-28T13:42:10.488Z,69.41
2022-12-28T13:44:41.729Z,69.30
2022-12-28T13:47:23.288Z,68.59
2022-12-28T13:50:02.885Z,68.78
2022-12-28T13:52:52.817Z,68.32
2022-12-28T13:55:26.422Z,68.66
2022-12-28T13:57:59.845Z,68.80
2022-12-28T14:00:28.499Z,68.85
2022-12-28T14:02:57.077Z,68.68
2022-12-28T14:05:26.698Z,68.86
2022-12-28T14:07:56.153Z,69.49
2022-12-28T14:10:24.182Z,69.61
2022-12-28T14:12:51.757Z,71.12
2022-12-28T14:15:19.367Z,71.41
2022-12-28T14:17:47.620Z,72.78
2022-12-28T14:20:15.515Z,73.17
2022-12-28T14:22:42.831Z,72.66
2022-12-28T14:25:12.946Z,72.59
2022-12-28T14:27:46.467Z,72.72
2022-12-28T14:30:24.325Z,73.24
2022-12-28T14:32:52.714Z,73.30
2022-12-28T14:35:25.952Z,73.48
2022-12-28T14:37:55.764Z,73.63
2022-12-28T14:40:30.674Z,73.77
2022-12-28T14:42:59.522Z,73.65
2022-12-28T14:46:07.316Z,73.07
2022-12-28T14:48:40.206Z,73.91
2022-12-28T14:51:17.430Z,73.23
2022-12-28T14:56:34.764Z,74.20
2022-12-28T14:59:02.425Z,74.36
2022-12-28T15:01:44.730Z,74.34
2022-12-28T15:04:35.765Z,74.49
2022-12-28T15:07:08.246Z,76.88
2022-12-28T15:09:35.998Z,76.09
2022-12-28T15:12:13.259Z,75.69
2022-12-28T15:14:41.735Z,76.09
2022-12-28T15:17:09.821Z,77.78
2022-12-28T15:19:37.155Z,77.39
2022-12-28T15:22:05.247Z,77.51
2022-12-28T15:24:34.339Z,76.78
2022-12-28T15:27:02.854Z,77.20
2022-12-28T15:32:17.478Z,77.49
2022-12-28T15:34:44.765Z,78.00
2022-12-28T15:37:12.032Z,78.08
2022-12-28T15:39:39.545Z,77.64
2022-12-28T15:42:06.893Z,77.37
2022-12-28T15:44:34.133Z,77.99
2022-12-28T15:47:01.431Z,78.18
2022-12-28T15:49:28.956Z,80.17
2022-12-28T15:51:56.228Z,79.54
2022-12-28T15:54:23.662Z,77.80
2022-12-28T15:56:55.408Z,77.55
2022-12-28T15:59:22.841Z,77.37
2022-12-28T16:01:50.231Z,77.79
2022-12-28T16:04:17.694Z,78.39
2022-12-28T16:06:45.481Z,79.03
2022-12-28T16:09:13.946Z,80.11
2022-12-28T16:11:41.728Z,80.18
2022-12-28T16:14:14.000Z,79.49
2022-12-28T16:16:41.797Z,81.66
2022-12-28T16:19:14.967Z,81.45
2022-12-28T16:21:43.241Z,81.31
2022-12-28T16:24:10.861Z,80.33
2022-12-28T16:26:38.371Z,80.16
2022-12-28T16:29:05.643Z,80.26
2022-12-28T16:31:35.271Z,80.10
2022-12-28T16:34:08.410Z,79.79
2022-12-28T16:36:35.867Z,79.17
2022-12-28T16:39:05.513Z,79.45
2022-12-28T16:41:36.600Z,78.12
2022-12-28T16:44:12.338Z,79.40
2022-12-28T16:46:40.033Z,79.24
2022-12-28T16:49:07.297Z,80.00
2022-12-28T16:51:34.713Z,79.86
2022-12-28T16:54:02.246Z,78.54
2022-12-28T16:56:29.598Z,79.58
2022-12-28T16:58:57.581Z,79.34
2022-12-28T17:01:25.170Z,78.89
2022-12-28T17:03:54.521Z,79.62
2022-12-28T17:06:25.717Z,79.80
2022-12-28T17:08:53.124Z,79.08
2022-12-28T17:11:23.411Z,76.97
2022-12-28T17:13:50.811Z,77.72
2022-12-28T17:16:18.298Z,78.48
2022-12-28T17:18:45.607Z,79.08
2022-12-28T17:21:12.899Z,79.14
2022-12-28T17:23:42.641Z,79.52
2022-12-28T17:26:10.037Z,77.93
2022-12-28T17:28:37.696Z,78.88
2022-12-28T17:31:10.826Z,78.07
2022-12-28T17:33:39.973Z,77.92
2022-12-28T17:36:08.747Z,78.47
2022-12-28T17:38:36.238Z,77.53
2022-12-28T17:41:11.068Z,77.78
2022-12-28T17:43:38.794Z,79.59
2022-12-28T17:46:06.514Z,78.06
2022-12-28T17:48:33.850Z,79.41
2022-12-28T17:51:03.522Z,79.34
2022-12-28T17:53:33.978Z,78.25
2022-12-28T17:56:03.093Z,78.41
2022-12-28T17:58:30.784Z,78.13
2022-12-28T18:00:58.531Z,77.89
2022-12-28T18:03:33.234Z,77.67
2022-12-28T18:06:01.471Z,78.36
2022-12-28T18:08:29.075Z,79.31
2022-12-28T18:10:57.091Z,78.78
2022-12-28T18:13:24.698Z,79.33
2022-12-28T18:15:52.316Z,79.16
2022-12-28T18:18:20.053Z,78.24
2022-12-28T18:20:56.401Z,77.73
2022-12-28T18:23:23.692Z,79.12
2022-12-28T18:25:51.064Z,78.71
2022-12-28T18:28:18.344Z,78.92
2022-12-28T18:30:46.002Z,78.96
2022-12-28T18:33:13.270Z,78.83
2022-12-28T18:35:40.729Z,78.15
2022-12-28T18:38:07.992Z,78.45
2022-12-28T18:40:37.880Z,79.00
2022-12-28T18:43:06.088Z,78.58
2022-12-28T18:45:33.401Z,79.39
2022-12-28T18:48:00.919Z,77.95
2022-12-28T18:50:28.244Z,81.26
2022-12-28T18:52:55.491Z,80.45
2022-12-28T18:55:22.849Z,78.25
2022-12-28T18:57:50.247Z,81.30
2022-12-28T19:00:17.818Z,80.21
2022-12-28T19:02:45.556Z,77.98
2022-12-28T19:05:13.012Z,77.42
2022-12-28T19:07:44.505Z,79.97
2022-12-28T19:10:15.978Z,81.74
2022-12-28T19:12:44.164Z,79.56
2022-12-28T19:15:11.767Z,80.37
2022-12-28T19:17:39.914Z,80.06
2022-12-28T19:20:08.036Z,77.15
2022-12-28T19:22:35.372Z,78.98
2022-12-28T19:25:02.764Z,80.30
2022-12-28T19:27:30.061Z,80.89
2022-12-28T19:29:57.390Z,79.18
2022-12-28T19:32:24.763Z,81.40
2022-12-28T19:34:53.519Z,80.90
2022-12-28T19:37:20.949Z,81.13
2022-12-28T19:39:51.117Z,80.78
2022-12-28T19:42:20.850Z,80.53
2022-12-28T19:44:48.138Z,80.78
2022-12-28T19:47:15.447Z,81.39
2022-12-28T19:49:42.792Z,81.06
2022-12-28T19:52:10.272Z,81.76
2022-12-28T19:54:37.725Z,83.29
2022-12-28T19:57:05.219Z,83.75
2022-12-28T19:59:32.842Z,83.11
2022-12-28T20:02:01.270Z,82.39
2022-12-28T20:04:28.630Z,81.78
2022-12-28T20:06:55.996Z,81.10
2022-12-28T20:09:23.332Z,84.53
2022-12-28T20:11:50.855Z,83.37
2022-12-28T20:14:24.837Z,83.10
2022-12-28T20:16:52.642Z,84.01
2022-12-28T20:19:20.056Z,84.03
2022-12-28T20:21:49.425Z,84.05
2022-12-28T20:24:17.602Z,83.78
2022-12-28T20:26:45.043Z,83.78
2022-12-28T20:29:15.943Z,83.19
2022-12-28T20:31:43.665Z,83.10
2022-12-28T20:34:11.175Z,82.38
2022-12-28T20:36:39.821Z,82.71
2022-12-28T20:39:07.187Z,82.17
2022-12-28T20:41:56.797Z,82.74
2022-12-28T20:44:26.477Z,82.07
2022-12-28T20:46:55.121Z,83.35
2022-12-28T20:49:24.193Z,82.84
2022-12-28T20:51:52.420Z,83.68
2022-12-28T20:54:20.410Z,83.48
2022-12-28T20:56:53.966Z,82.70
2022-12-28T20:59:22.683Z,83.62
2022-12-28T21:01:49.991Z,82.78
2022-12-28T21:04:17.567Z,83.09
2022-12-28T21:06:45.854Z,82.98
2022-12-28T21:09:13.328Z,81.75
2022-12-28T21:11:40.547Z,83.57
2022-12-28T21:14:07.801Z,82.68
2022-12-28T21:16:35.202Z,82.21
2022-12-28T21:19:02.647Z,81.99
2022-12-28T21:21:29.854Z,79.79
2022-12-28T21:23:57.135Z,81.45
2022-12-28T21:26:25.667Z,82.53
2022-12-28T21:28:53.004Z,81.47
2022-12-28T21:31:20.373Z,79.78
2022-12-28T21:33:47.778Z,79.46
2022-12-28T21:36:17.003Z,80.18
2022-12-28T21:38:45.579Z,82.11
2022-12-28T21:41:38.174Z,79.56
2022-12-28T21:44:10.819Z,80.22
2022-12-28T21:46:38.350Z,80.11
2022-12-28T21:49:06.288Z,80.24
2022-12-28T21:51:38.503Z,78.97
2022-12-28T21:54:14.513Z,79.69
2022-12-28T21:56:43.179Z,78.16
2022-12-28T21:59:11.630Z,79.00
2022-12-28T22:01:59.374Z,80.11
2022-12-28T22:04:45.875Z,79.12
2022-12-28T22:07:14.806Z,78.98
2022-12-28T22:10:01.224Z,78.98
2022-12-28T22:12:34.467Z,81.27
2022-12-28T22:15:22.112Z,80.62
2022-12-28T22:17:49.678Z,83.22
2022-12-28T22:20:17.214Z,83.21
2022-12-28T22:22:44.464Z,85.55
2022-12-28T22:25:12.419Z,83.32
2022-12-28T22:27:40.048Z,84.39
2022-12-28T22:30:08.286Z,83.72
2022-12-28T22:32:35.595Z,83.59
2022-12-28T22:35:03.465Z,83.88
2022-12-28T22:37:33.542Z,84.99
2022-12-28T22:40:01.416Z,84.42
2022-12-28T22:42:28.778Z,84.71
2022-12-28T22:44:56.616Z,84.69
2022-12-28T22:47:27.335Z,84.76
2022-12-28T22:49:54.857Z,84.22
2022-12-28T22:52:22.167Z,84.79
2022-12-28T22:54:49.964Z,85.13
2022-12-28T22:57:17.326Z,84.42
2022-12-28T22:59:45.229Z,84.35
2022-12-28T23:02:12.792Z,85.15
2022-12-28T23:04:41.018Z,86.04
2022-12-28T23:07:08.465Z,86.17
2022-12-28T23:09:36.503Z,85.46
2022-12-28T23:12:03.988Z,85.88
2022-12-28T23:14:49.737Z,85.76
2022-12-28T23:17:17.531Z,84.84
2022-12-28T23:20:04.459Z,85.76
2022-12-28T23:22:52.332Z,83.99
2022-12-28T23:25:40.194Z,82.13
2022-12-28T23:28:10.128Z,83.30
2022-12-28T23:30:38.903Z,83.19
2022-12-28T23:33:06.230Z,82.90
2022-12-28T23:35:33.653Z,81.63
2022-12-28T23:38:00.895Z,82.44
2022-12-28T23:40:28.396Z,81.99
2022-12-28T23:42:55.809Z,83.15
2022-12-28T23:45:23.163Z,81.50
2022-12-28T23:47:53.342Z,81.84
2022-12-28T23:50:20.632Z,82.12
2022-12-28T23:52:47.960Z,82.66
2022-12-28T23:55:15.442Z,82.18
2022-12-28T23:57:43.318Z,82.73
